createdAt,value
2017-11-27T00:01:00.300Z,1.65
2017-11-27T00:03:26.799Z,1.58
2017-11-27T00:05:53.144Z,1.51
2017-11-27T00:08:20.059Z,1.45
2017-11-27T00:10:46.434Z,1.45
2017-11-27T00:13:12.712Z,1.50
2017-11-27T00:15:39.090Z,1.47
2017-11-27T00:18:05.608Z,1.43
2017-11-27T00:20:32.042Z,1.36
2017-11-27T00:22:58.305Z,1.29
2017-11-27T00:25:24.743Z,1.14
2017-11-27T00:27:51.035Z,0.98
2017-11-27T00:30:17.743Z,0.85
2017-11-27T00:32:44.111Z,0.72
2017-11-27T00:35:10.555Z,0.63
2017-11-27T00:37:36.917Z,0.51
2017-11-27T00:40:03.422Z,0.39
2017-11-27T00:42:29.812Z,0.25
2017-11-27T00:44:56.194Z,0.13
2017-11-27T00:47:22.482Z,0.00
2017-11-27T00:49:48.871Z,-0.09
2017-11-27T00:52:15.381Z,-0.19
2017-11-27T00:54:41.743Z,-0.28
2017-11-27T00:57:08.184Z,-0.37
2017-11-27T00:59:34.618Z,-0.43
2017-11-27T01:02:01.255Z,-0.47
2017-11-27T01:04:27.585Z,-0.47
2017-11-27T01:06:53.979Z,-0.48
2017-11-27T01:09:20.786Z,-0.47
2017-11-27T01:11:47.276Z,-0.47
2017-11-27T01:14:13.761Z,-0.42
2017-11-27T01:16:40.344Z,-0.39
2017-11-27T01:19:06.674Z,-0.31
2017-11-27T01:21:33.305Z,-0.17
2017-11-27T01:23:59.473Z,-0.03
2017-11-27T01:26:26.029Z,0.07
2017-11-27T01:28:52.382Z,0.15
2017-11-27T01:31:18.694Z,0.19
2017-11-27T01:33:45.233Z,0.23
2017-11-27T01:36:11.700Z,0.27
2017-11-27T01:38:37.884Z,0.31
2017-11-27T01:41:04.221Z,0.34
2017-11-27T01:43:30.670Z,0.34
2017-11-27T01:45:58.054Z,0.33
2017-11-27T01:48:24.542Z,0.33
2017-11-27T01:50:50.799Z,0.35
2017-11-27T01:53:17.185Z,0.38
2017-11-27T01:55:43.590Z,0.41
2017-11-27T01:58:09.945Z,0.45
2017-11-27T02:00:36.447Z,0.49
2017-11-27T02:03:02.839Z,0.51
2017-11-27T02:05:29.523Z,0.52
2017-11-27T02:07:55.872Z,0.52
2017-11-27T02:10:22.494Z,0.51
2017-11-27T02:12:48.818Z,0.49
2017-11-27T02:15:15.347Z,0.52
2017-11-27T02:17:41.819Z,0.56
2017-11-27T02:20:08.308Z,0.62
2017-11-27T02:22:34.691Z,0.68
2017-11-27T02:25:01.034Z,0.71
2017-11-27T02:27:27.412Z,0.74
2017-11-27T02:29:53.662Z,0.73
2017-11-27T02:32:19.988Z,0.72
2017-11-27T02:34:46.363Z,0.70
2017-11-27T02:37:12.614Z,0.70
2017-11-27T02:39:39.138Z,0.69
2017-11-27T02:42:05.617Z,0.69
2017-11-27T02:44:31.977Z,0.70
2017-11-27T02:46:58.521Z,0.74
2017-11-27T02:49:24.684Z,0.77
2017-11-27T02:51:51.025Z,0.82
2017-11-27T02:54:17.346Z,0.86
2017-11-27T02:56:43.706Z,0.88
2017-11-27T02:59:10.369Z,0.92
2017-11-27T03:01:36.697Z,0.95
2017-11-27T03:04:03.102Z,0.99
2017-11-27T03:06:29.594Z,1.01
2017-11-27T03:08:56.063Z,1.03
2017-11-27T03:11:22.488Z,1.03
2017-11-27T03:13:48.767Z,1.02
2017-11-27T03:16:14.969Z,1.00
2017-11-27T03:18:41.341Z,0.92
2017-11-27T03:21:07.467Z,0.84
2017-11-27T03:23:33.595Z,0.72
2017-11-27T03:25:59.866Z,0.61
2017-11-27T03:28:26.247Z,0.50
2017-11-27T03:30:52.321Z,0.44
2017-11-27T03:33:18.622Z,0.42
2017-11-27T03:35:45.014Z,0.44
2017-11-27T03:38:11.348Z,0.43
2017-11-27T03:40:37.896Z,0.42
2017-11-27T03:43:04.400Z,0.38
2017-11-27T03:45:30.663Z,0.36
2017-11-27T03:47:57.108Z,0.27
2017-11-27T03:50:23.491Z,0.14
2017-11-27T03:52:49.810Z,0.02
2017-11-27T03:55:17.295Z,-0.06
2017-11-27T03:57:43.647Z,-0.10
2017-11-27T04:00:10.003Z,-0.19
2017-11-27T04:02:36.912Z,-0.30
2017-11-27T04:05:03.273Z,-0.41
2017-11-27T04:07:29.659Z,-0.51
2017-11-27T04:09:55.925Z,-0.62
2017-11-27T04:12:22.171Z,-0.63
2017-11-27T04:14:48.820Z,-0.63
2017-11-27T04:17:14.998Z,-0.57
2017-11-27T04:19:41.353Z,-0.51
2017-11-27T04:22:07.983Z,-0.47
2017-11-27T04:24:34.222Z,-0.45
2017-11-27T04:27:00.284Z,-0.34
2017-11-27T04:29:26.400Z,-0.27
2017-11-27T04:31:52.635Z,-0.14
2017-11-27T04:34:18.668Z,0.01
2017-11-27T04:36:44.698Z,0.11
2017-11-27T04:39:10.868Z,0.19
2017-11-27T04:41:37.981Z,0.29
2017-11-27T04:44:04.157Z,0.41
2017-11-27T04:46:30.259Z,0.57
2017-11-27T04:48:56.317Z,0.72
2017-11-27T04:51:22.408Z,0.88
2017-11-27T04:53:48.537Z,0.94
2017-11-27T04:56:14.688Z,1.04
2017-11-27T04:58:40.655Z,1.13
2017-11-27T05:01:06.758Z,1.17
2017-11-27T05:03:32.861Z,1.17
2017-11-27T05:05:58.902Z,1.17
2017-11-27T05:08:25.326Z,1.12
2017-11-27T05:10:51.362Z,0.99
2017-11-27T05:13:17.411Z,0.88
2017-11-27T05:15:43.557Z,0.78
2017-11-27T05:18:10.026Z,0.70
2017-11-27T05:20:36.134Z,0.67
2017-11-27T05:23:02.201Z,0.64
2017-11-27T05:25:28.226Z,0.65
2017-11-27T05:27:54.272Z,0.68
2017-11-27T05:30:20.297Z,0.71
2017-11-27T05:32:46.489Z,0.73
2017-11-27T05:35:12.584Z,0.75
2017-11-27T05:37:38.604Z,0.76
2017-11-27T05:40:04.782Z,0.80
2017-11-27T05:42:30.921Z,0.82
2017-11-27T05:44:56.926Z,0.84
2017-11-27T05:47:23.468Z,0.84
2017-11-27T05:49:49.576Z,0.83
2017-11-27T05:52:15.664Z,0.81
2017-11-27T05:54:41.986Z,0.78
2017-11-27T05:57:08.145Z,0.77
2017-11-27T05:59:34.220Z,0.80
2017-11-27T06:02:00.229Z,0.82
2017-11-27T06:04:26.430Z,0.88
2017-11-27T06:06:52.718Z,0.94
2017-11-27T06:09:19.033Z,1.00
2017-11-27T06:11:45.585Z,1.04
2017-11-27T06:14:11.811Z,1.09
2017-11-27T06:16:37.860Z,1.12
2017-11-27T06:19:04.185Z,1.12
2017-11-27T06:21:30.214Z,1.12
2017-11-27T06:23:56.541Z,1.10
2017-11-27T06:26:22.667Z,1.08
2017-11-27T06:28:49.028Z,1.24
2017-11-27T06:31:15.112Z,1.41
2017-11-27T06:33:41.111Z,1.54
2017-11-27T06:36:07.359Z,1.67
2017-11-27T06:38:33.643Z,1.74
2017-11-27T06:40:59.752Z,1.80
2017-11-27T06:43:25.837Z,1.83
2017-11-27T06:45:51.931Z,1.89
2017-11-27T06:48:18.400Z,1.97
2017-11-27T06:50:44.457Z,2.03
2017-11-27T06:53:10.471Z,2.06
2017-11-27T06:55:36.595Z,2.08
2017-11-27T06:58:02.710Z,2.11
2017-11-27T07:00:28.796Z,2.12
2017-11-27T07:02:55.142Z,2.16
2017-11-27T07:05:21.322Z,2.27
2017-11-27T07:07:47.387Z,2.30
2017-11-27T07:10:13.472Z,2.36
2017-11-27T07:12:40.135Z,2.39
2017-11-27T07:15:07.024Z,2.41
2017-11-27T07:17:33.291Z,2.42
2017-11-27T07:19:59.845Z,2.46
2017-11-27T07:22:26.020Z,2.51
2017-11-27T07:24:52.195Z,2.61
2017-11-27T07:27:18.633Z,2.67
2017-11-27T07:29:44.978Z,2.68
2017-11-27T07:32:11.586Z,2.72
2017-11-27T07:34:38.254Z,2.75
2017-11-27T07:37:04.583Z,2.75
2017-11-27T07:39:36.703Z,2.78
2017-11-27T07:42:03.063Z,2.79
2017-11-27T07:44:29.255Z,2.79
2017-11-27T07:46:55.511Z,2.79
2017-11-27T07:49:22.373Z,2.78
2017-11-27T07:51:48.597Z,2.80
2017-11-27T07:54:14.796Z,2.82
2017-11-27T07:56:41.625Z,2.85
2017-11-27T07:59:08.250Z,2.89
2017-11-27T08:01:34.551Z,2.95
2017-11-27T08:04:00.765Z,2.99
2017-11-27T08:06:28.018Z,3.01
2017-11-27T08:08:54.102Z,3.06
2017-11-27T08:11:20.297Z,3.15
2017-11-27T08:13:46.459Z,3.28
2017-11-27T08:16:12.688Z,3.42
2017-11-27T08:18:38.852Z,3.56
2017-11-27T08:21:04.975Z,3.66
2017-11-27T08:23:31.130Z,3.76
2017-11-27T08:25:57.219Z,3.91
2017-11-27T08:28:23.559Z,3.98
2017-11-27T08:30:49.748Z,4.05
2017-11-27T08:33:16.190Z,4.09
2017-11-27T08:35:42.424Z,4.06
2017-11-27T08:38:08.741Z,4.04
2017-11-27T08:40:35.053Z,4.05
2017-11-27T08:43:01.189Z,4.07
2017-11-27T08:45:27.729Z,4.12
2017-11-27T08:47:54.336Z,4.19
2017-11-27T08:50:20.598Z,4.27
2017-11-27T08:52:46.811Z,4.34
2017-11-27T08:55:12.976Z,4.38
2017-11-27T08:57:39.152Z,4.49
2017-11-27T09:00:05.881Z,4.43
2017-11-27T09:02:32.050Z,4.40
2017-11-27T09:04:58.560Z,4.46
2017-11-27T09:07:24.690Z,4.54
2017-11-27T09:09:50.873Z,4.65
2017-11-27T09:12:17.417Z,4.77
2017-11-27T09:14:43.563Z,4.86
2017-11-27T09:17:09.850Z,5.02
2017-11-27T09:19:36.018Z,5.17
2017-11-27T09:22:02.273Z,5.25
2017-11-27T09:24:28.603Z,5.35
2017-11-27T09:26:55.891Z,5.41
2017-11-27T09:29:22.346Z,5.50
2017-11-27T09:31:48.597Z,5.61
2017-11-27T09:34:14.817Z,5.69
2017-11-27T09:36:41.369Z,5.81
2017-11-27T09:39:07.478Z,5.82
2017-11-27T09:41:33.585Z,5.85
2017-11-27T09:43:59.764Z,5.94
2017-11-27T09:46:25.929Z,5.91
2017-11-27T09:48:52.103Z,5.96
2017-11-27T09:51:18.391Z,6.00
2017-11-27T09:53:44.598Z,6.08
2017-11-27T09:56:11.065Z,6.14
2017-11-27T09:58:37.309Z,6.18
2017-11-27T10:01:03.421Z,6.28
2017-11-27T10:03:29.669Z,6.18
2017-11-27T10:05:55.861Z,6.18
2017-11-27T10:08:22.095Z,6.19
2017-11-27T10:10:48.280Z,6.24
2017-11-27T10:13:14.868Z,6.31
2017-11-27T10:15:41.223Z,6.30
2017-11-27T10:18:09.374Z,6.21
2017-11-27T10:20:36.080Z,6.23
2017-11-27T10:23:02.233Z,6.27
2017-11-27T10:25:28.390Z,6.37
2017-11-27T10:27:54.418Z,6.45
2017-11-27T10:30:20.654Z,6.43
2017-11-27T10:32:47.184Z,6.50
2017-11-27T10:35:13.446Z,6.53
2017-11-27T10:37:40.097Z,6.59
2017-11-27T10:40:06.309Z,6.43
2017-11-27T10:42:32.456Z,6.34
2017-11-27T10:44:58.787Z,6.40
2017-11-27T10:47:24.924Z,6.43
2017-11-27T10:49:51.001Z,6.48
2017-11-27T10:52:17.141Z,6.57
2017-11-27T10:54:43.221Z,6.63
2017-11-27T10:57:09.676Z,6.70
2017-11-27T10:59:35.754Z,6.58
2017-11-27T11:02:01.946Z,6.48
2017-11-27T11:04:28.233Z,6.49
2017-11-27T11:06:54.323Z,6.49
2017-11-27T11:09:20.350Z,6.57
2017-11-27T11:11:46.491Z,6.51
2017-11-27T11:14:12.605Z,6.59
2017-11-27T11:16:38.946Z,6.54
2017-11-27T11:19:05.210Z,6.53
2017-11-27T11:21:31.760Z,6.52
2017-11-27T11:23:57.944Z,6.50
2017-11-27T11:26:24.071Z,6.54
2017-11-27T11:28:50.213Z,6.62
2017-11-27T11:31:16.583Z,6.65
2017-11-27T11:33:43.099Z,6.66
2017-11-27T11:36:09.311Z,6.72
2017-11-27T11:38:35.489Z,6.77
2017-11-27T11:41:02.592Z,6.73
2017-11-27T11:43:28.677Z,6.83
2017-11-27T11:45:54.793Z,6.79
2017-11-27T11:48:21.300Z,6.76
2017-11-27T11:50:48.689Z,6.92
2017-11-27T11:53:15.195Z,6.90
2017-11-27T11:55:43.129Z,6.86
2017-11-27T11:58:11.833Z,7.14
2017-11-27T12:00:39.532Z,7.55
2017-11-27T12:03:05.982Z,7.54
2017-11-27T12:05:32.454Z,7.45
2017-11-27T12:08:00.044Z,7.41
2017-11-27T12:10:26.587Z,7.44
2017-11-27T12:12:53.271Z,7.25
2017-11-27T12:15:19.899Z,7.31
2017-11-27T12:17:46.700Z,7.37
2017-11-27T12:20:13.498Z,7.57
2017-11-27T12:22:40.032Z,7.63
2017-11-27T12:25:06.669Z,7.69
2017-11-27T12:27:33.037Z,7.88
2017-11-27T12:29:59.629Z,8.05
2017-11-27T12:32:25.993Z,8.30
2017-11-27T12:34:52.551Z,8.41
2017-11-27T12:37:19.369Z,8.37
2017-11-27T12:39:45.830Z,8.34
2017-11-27T12:42:11.993Z,8.31
2017-11-27T12:44:38.332Z,8.45
2017-11-27T12:47:04.513Z,8.33
2017-11-27T12:49:30.917Z,8.41
2017-11-27T12:51:58.046Z,8.45
2017-11-27T12:54:24.064Z,8.39
2017-11-27T12:56:50.249Z,8.41
2017-11-27T12:59:16.520Z,8.35
2017-11-27T13:01:42.654Z,8.17
2017-11-27T13:04:08.929Z,8.22
2017-11-27T13:06:35.302Z,8.20
2017-11-27T13:09:01.608Z,8.19
2017-11-27T13:11:29.054Z,8.36
2017-11-27T13:13:55.527Z,8.50
2017-11-27T13:16:21.702Z,8.67
2017-11-27T13:18:47.893Z,8.69
2017-11-27T13:21:14.196Z,8.70
2017-11-27T13:23:40.487Z,8.39
2017-11-27T13:26:07.092Z,8.17
2017-11-27T13:28:33.168Z,8.05
2017-11-27T13:30:59.448Z,7.95
2017-11-27T13:33:26.042Z,7.87
2017-11-27T13:35:52.400Z,7.81
2017-11-27T13:38:18.485Z,7.70
2017-11-27T13:40:44.659Z,7.58
2017-11-27T13:43:11.542Z,7.49
2017-11-27T13:45:37.733Z,7.39
2017-11-27T13:48:03.983Z,7.27
2017-11-27T13:50:30.150Z,7.23
2017-11-27T13:52:56.365Z,7.11
2017-11-27T13:55:22.871Z,7.11
2017-11-27T13:57:49.138Z,7.16
2017-11-27T14:00:15.666Z,7.09
2017-11-27T14:02:43.368Z,7.02
2017-11-27T14:05:09.973Z,7.04
2017-11-27T14:07:36.442Z,7.00
2017-11-27T14:10:02.937Z,6.99
2017-11-27T14:12:29.449Z,6.87
2017-11-27T14:14:55.737Z,6.81
2017-11-27T14:17:22.327Z,6.79
2017-11-27T14:19:48.423Z,6.68
2017-11-27T14:25:06.064Z,6.58
2017-11-27T14:27:32.399Z,6.58
2017-11-27T14:29:59.617Z,6.53
2017-11-27T14:32:26.319Z,6.43
2017-11-27T14:34:52.821Z,6.39
2017-11-27T14:37:19.094Z,6.29
2017-11-27T14:39:45.347Z,6.21
2017-11-27T14:42:12.645Z,6.18
2017-11-27T14:44:40.173Z,6.10
2017-11-27T14:47:07.050Z,6.13
2017-11-27T14:49:33.286Z,6.01
2017-11-27T14:51:59.369Z,5.93
2017-11-27T14:54:25.638Z,5.86
2017-11-27T14:56:52.095Z,5.83
2017-11-27T14:59:18.283Z,5.79
2017-11-27T15:01:44.600Z,5.76
2017-11-27T15:04:11.317Z,5.75
2017-11-27T15:06:37.451Z,5.72
2017-11-27T15:09:03.710Z,5.75
2017-11-27T15:11:29.797Z,5.69
2017-11-27T15:13:56.058Z,5.68
2017-11-27T15:16:22.556Z,5.59
2017-11-27T15:18:51.247Z,5.55
2017-11-27T15:21:17.532Z,5.53
2017-11-27T15:23:44.451Z,5.48
2017-11-27T15:26:10.728Z,5.53
2017-11-27T15:28:37.066Z,5.51
2017-11-27T15:31:03.603Z,5.50
2017-11-27T15:33:31.066Z,5.46
2017-11-27T15:35:57.263Z,5.42
2017-11-27T15:38:23.515Z,5.41
2017-11-27T15:40:50.881Z,5.36
2017-11-27T15:43:18.646Z,5.30
2017-11-27T15:45:45.469Z,5.26
2017-11-27T15:48:11.636Z,5.22
2017-11-27T15:50:37.875Z,5.19
2017-11-27T15:53:04.181Z,5.18
2017-11-27T15:55:30.565Z,5.17
2017-11-27T15:57:56.959Z,5.12
2017-11-27T16:00:23.145Z,5.08
2017-11-27T16:02:49.408Z,5.08
2017-11-27T16:05:15.749Z,5.06
2017-11-27T16:07:41.994Z,5.01
2017-11-27T16:10:09.198Z,4.99
2017-11-27T16:12:35.541Z,4.98
2017-11-27T16:15:01.709Z,4.96
2017-11-27T16:17:27.835Z,4.94
2017-11-27T16:19:53.961Z,4.92
2017-11-27T16:22:21.964Z,4.91
2017-11-27T16:24:49.086Z,4.93
2017-11-27T16:27:15.415Z,4.97
2017-11-27T16:29:41.562Z,5.01
2017-11-27T16:32:07.696Z,5.08
2017-11-27T16:34:33.993Z,5.11
2017-11-27T16:37:00.362Z,5.13
2017-11-27T16:39:26.513Z,5.17
2017-11-27T16:41:52.790Z,5.23
2017-11-27T16:44:19.017Z,5.29
2017-11-27T16:46:49.966Z,5.30
2017-11-27T16:49:26.205Z,5.28
2017-11-27T16:51:52.754Z,5.26
2017-11-27T16:54:37.547Z,5.28
2017-11-27T16:57:10.995Z,5.27
2017-11-27T17:05:14.151Z,5.27
2017-11-27T17:07:40.371Z,5.26
2017-11-27T17:10:06.603Z,5.27
2017-11-27T17:12:32.913Z,5.28
2017-11-27T17:14:59.197Z,5.30
2017-11-27T17:17:25.511Z,5.34
2017-11-27T17:19:51.926Z,5.38
2017-11-27T17:22:18.506Z,5.38
2017-11-27T17:24:44.758Z,5.36
2017-11-27T17:27:10.941Z,5.36
2017-11-27T17:29:37.498Z,5.38
2017-11-27T17:32:03.864Z,5.39
2017-11-27T17:34:29.949Z,5.41
2017-11-27T17:36:56.097Z,5.38
2017-11-27T17:39:22.399Z,5.35
2017-11-27T17:41:48.771Z,5.31
2017-11-27T17:44:15.253Z,5.38
2017-11-27T17:46:41.449Z,5.40
2017-11-27T17:49:08.058Z,5.41
2017-11-27T17:51:34.352Z,5.39
2017-11-27T17:54:01.730Z,5.36
2017-11-27T17:56:28.559Z,5.40
2017-11-27T17:58:55.172Z,5.39
2017-11-27T18:01:21.456Z,5.35
2017-11-27T18:03:48.000Z,5.30
2017-11-27T18:06:14.248Z,5.27
2017-11-27T18:08:40.915Z,5.26
2017-11-27T18:11:07.338Z,5.29
2017-11-27T18:13:33.629Z,5.33
2017-11-27T18:15:59.989Z,5.32
2017-11-27T18:18:26.306Z,5.32
2017-11-27T18:20:52.846Z,5.32
2017-11-27T18:23:19.129Z,5.41
2017-11-27T18:25:45.342Z,5.38
2017-11-27T18:28:12.841Z,5.34
2017-11-27T18:30:39.295Z,5.32
2017-11-27T18:33:05.766Z,5.32
2017-11-27T18:35:32.078Z,5.30
2017-11-27T18:37:58.541Z,5.29
2017-11-27T18:40:25.462Z,5.26
2017-11-27T18:42:52.009Z,5.25
2017-11-27T18:45:18.403Z,5.25
2017-11-27T18:47:44.795Z,5.26
2017-11-27T18:50:11.169Z,5.24
2017-11-27T18:52:37.398Z,5.23
2017-11-27T18:55:03.902Z,5.20
2017-11-27T18:57:30.157Z,5.21
2017-11-27T18:59:56.517Z,5.18
2017-11-27T19:02:22.738Z,5.15
2017-11-27T19:04:48.993Z,5.17
2017-11-27T19:07:15.413Z,5.19
2017-11-27T19:09:41.645Z,5.18
2017-11-27T19:12:08.151Z,5.19
2017-11-27T19:14:34.501Z,5.17
2017-11-27T19:17:00.718Z,5.15
2017-11-27T19:19:28.899Z,5.15
2017-11-27T19:21:55.117Z,5.25
2017-11-27T19:24:24.378Z,5.24
2017-11-27T19:26:50.698Z,5.26
2017-11-27T19:29:17.774Z,5.26
2017-11-27T19:31:44.032Z,5.22
2017-11-27T19:34:10.335Z,5.21
2017-11-27T19:36:36.666Z,5.21
2017-11-27T19:39:03.923Z,5.22
2017-11-27T19:41:30.057Z,5.24
2017-11-27T19:43:56.329Z,5.20
2017-11-27T19:46:22.642Z,5.16
2017-11-27T19:48:49.102Z,5.16
2017-11-27T19:51:15.253Z,5.15
2017-11-27T19:53:41.733Z,5.13
2017-11-27T19:56:08.699Z,5.12
2017-11-27T19:58:35.308Z,5.11
2017-11-27T20:01:03.806Z,5.09
2017-11-27T20:03:30.494Z,5.09
2017-11-27T20:05:57.244Z,5.11
2017-11-27T20:08:23.964Z,5.10
2017-11-27T20:10:50.349Z,5.13
2017-11-27T20:13:16.750Z,5.20
2017-11-27T20:15:43.397Z,5.17
2017-11-27T20:18:10.014Z,5.16
2017-11-27T20:20:36.300Z,5.17
2017-11-27T20:23:03.013Z,5.15
2017-11-27T20:25:29.715Z,5.14
2017-11-27T20:27:56.289Z,5.13
2017-11-27T20:30:24.050Z,5.13
2017-11-27T20:32:50.334Z,5.11
2017-11-27T20:35:16.701Z,5.08
2017-11-27T20:37:43.073Z,5.07
2017-11-27T20:40:09.302Z,5.09
2017-11-27T20:42:35.563Z,5.11
2017-11-27T20:45:02.081Z,5.10
2017-11-27T20:47:28.337Z,5.08
2017-11-27T20:49:54.637Z,5.07
2017-11-27T20:52:20.821Z,5.03
2017-11-27T20:54:47.281Z,5.00
2017-11-27T20:57:13.408Z,4.99
2017-11-27T20:59:39.835Z,4.96
2017-11-27T21:02:06.155Z,4.95
2017-11-27T21:04:32.581Z,4.96
2017-11-27T21:06:58.889Z,4.96
2017-11-27T21:09:25.249Z,4.99
2017-11-27T21:11:51.393Z,5.01
2017-11-27T21:14:17.725Z,5.04
2017-11-27T21:16:43.961Z,5.04
2017-11-27T21:19:10.146Z,5.03
2017-11-27T21:21:36.319Z,5.02
2017-11-27T21:24:02.766Z,5.01
2017-11-27T21:26:29.155Z,5.04
2017-11-27T21:28:55.533Z,5.09
2017-11-27T21:31:21.714Z,5.12
2017-11-27T21:33:47.820Z,5.10
2017-11-27T21:36:14.324Z,5.08
2017-11-27T21:38:40.507Z,5.07
2017-11-27T21:41:06.626Z,5.08
2017-11-27T21:43:32.874Z,5.06
2017-11-27T21:45:59.526Z,5.07
2017-11-27T21:48:25.680Z,5.14
2017-11-27T21:50:51.903Z,5.14
2017-11-27T21:53:18.771Z,5.12
2017-11-27T21:55:44.797Z,5.14
2017-11-27T21:58:10.967Z,5.12
2017-11-27T22:00:37.441Z,5.08
2017-11-27T22:03:04.070Z,5.06
2017-11-27T22:05:30.279Z,5.03
2017-11-27T22:07:56.405Z,5.01
2017-11-27T22:10:22.566Z,5.03
2017-11-27T22:12:48.895Z,5.05
2017-11-27T22:15:15.157Z,5.07
2017-11-27T22:17:41.270Z,5.07
2017-11-27T22:20:07.393Z,5.08
2017-11-27T22:22:33.679Z,5.07
2017-11-27T22:24:59.949Z,5.08
2017-11-27T22:27:26.301Z,5.09
2017-11-27T22:29:52.636Z,5.11
2017-11-27T22:32:18.847Z,5.10
2017-11-27T22:34:45.159Z,5.07
2017-11-27T22:37:11.406Z,5.05
2017-11-27T22:39:38.192Z,5.02
2017-11-27T22:42:04.438Z,5.00
2017-11-27T22:44:30.470Z,4.98
2017-11-27T22:46:56.593Z,4.97
2017-11-27T22:49:22.704Z,4.96
2017-11-27T22:51:49.872Z,4.95
2017-11-27T22:54:15.927Z,4.92
2017-11-27T22:56:41.997Z,4.89
2017-11-27T22:59:08.127Z,4.89
2017-11-27T23:01:34.238Z,4.91
2017-11-27T23:04:00.393Z,4.90
2017-11-27T23:06:26.456Z,4.86
2017-11-27T23:08:52.653Z,4.82
2017-11-27T23:11:18.697Z,4.80
2017-11-27T23:13:44.951Z,4.77
2017-11-27T23:16:11.030Z,4.75
2017-11-27T23:18:37.184Z,4.74
2017-11-27T23:21:03.421Z,4.70
2017-11-27T23:23:29.608Z,4.72
2017-11-27T23:25:55.641Z,4.70
2017-11-27T23:28:22.097Z,4.71
2017-11-27T23:30:48.810Z,4.70
2017-11-27T23:33:15.148Z,4.68
2017-11-27T23:35:41.676Z,4.69
2017-11-27T23:38:07.759Z,4.68
2017-11-27T23:40:33.941Z,4.71
2017-11-27T23:43:00.145Z,4.71
2017-11-27T23:45:26.162Z,4.71
2017-11-27T23:47:52.494Z,4.72
2017-11-27T23:50:18.560Z,4.79
2017-11-27T23:52:44.916Z,4.80
2017-11-27T23:55:11.112Z,4.77
2017-11-27T23:57:37.289Z,4.76
